aviador You're here:

KXNA Decoded Metar

BENTONVILLE (NW) in AR, USA
Report Time2018-06-25 01:53:00
UTC Time2018-06-25 02:08:54
Flight Rules vfr VFR
Wind190° at 04 kt
W.Decomp.*RWY 17: 3.8 kt HW 1.1 kt RCW
RWY 16: 3.6 kt HW 1.8 kt RCW
W.Rank190° ranks 2
Current wind is below 190° avg. (9.2)
Visibility9999 m
Phenomena:N/A
Clouds:N/A
Expected CloudBase > 1,600 ft AGL from Temp-Dew spread
CeilingNone
Temp21°C (ISA +9)
Dew Point17°C (78% RH)
QNH1012 hPa
Density Alt2,579 ft
Elevation1,286 ft
Report Wrong Elevation
Raw Report
KXNA 250153Z 19004KT 10SM CLR 21/17 A2987 RMK AO2 SLP102
T02110172=

Extra information for KXNA:More info

Metar Taf Metar & Taf Last 4 Metars F.Rules Stats Wind Profile Meteogram Temp Stats Airport Information Weather charts Add Link Nearby VenuesMetar ALERT Operation Metar Decoded Social comments

AIRNAV info for KXNA